sensor_id;sensor_type;location;lat;lon;timestamp;P1;durP1;ratioP1;P2;durP2;ratioP2
41514;SDS011;27247;48.020;16.720;2023-06-19T00:00:31;15.83;;;8.33;;
41514;SDS011;27247;48.020;16.720;2023-06-19T00:04:41;10.02;;;8.15;;
41514;SDS011;27247;48.020;16.720;2023-06-19T00:08:52;12.70;;;8.03;;
41514;SDS011;27247;48.020;16.720;2023-06-19T00:13:02;11.00;;;8.50;;
41514;SDS011;27247;48.020;16.720;2023-06-19T00:17:12;12.50;;;8.27;;
41514;SDS011;27247;48.020;16.720;2023-06-19T00:21:26;13.15;;;8.10;;
41514;SDS011;27247;48.020;16.720;2023-06-19T00:25:37;12.00;;;8.43;;
41514;SDS011;27247;48.020;16.720;2023-06-19T00:29:47;11.13;;;8.23;;
41514;SDS011;27247;48.020;16.720;2023-06-19T00:33:58;11.65;;;8.25;;
41514;SDS011;27247;48.020;16.720;2023-06-19T00:38:08;12.73;;;8.00;;
41514;SDS011;27247;48.020;16.720;2023-06-19T00:42:18;11.15;;;8.23;;
41514;SDS011;27247;48.020;16.720;2023-06-19T00:46:29;11.97;;;9.43;;
41514;SDS011;27247;48.020;16.720;2023-06-19T00:50:40;12.23;;;9.70;;
41514;SDS011;27247;48.020;16.720;2023-06-19T00:54:50;11.80;;;9.02;;
41514;SDS011;27247;48.020;16.720;2023-06-19T00:59:01;11.93;;;8.83;;
41514;SDS011;27247;48.020;16.720;2023-06-19T01:03:15;12.35;;;8.80;;
41514;SDS011;27247;48.020;16.720;2023-06-19T01:07:31;14.52;;;9.10;;
41514;SDS011;27247;48.020;16.720;2023-06-19T01:11:57;12.02;;;8.75;;
41514;SDS011;27247;48.020;16.720;2023-06-19T01:16:14;15.10;;;9.80;;
41514;SDS011;27247;48.020;16.720;2023-06-19T01:20:26;13.85;;;10.10;;
41514;SDS011;27247;48.020;16.720;2023-06-19T01:24:36;15.40;;;8.70;;
41514;SDS011;27247;48.020;16.720;2023-06-19T01:28:46;12.45;;;8.50;;
41514;SDS011;27247;48.020;16.720;2023-06-19T01:33:04;11.77;;;9.02;;
41514;SDS011;27247;48.020;16.720;2023-06-19T01:37:21;17.33;;;9.43;;
41514;SDS011;27247;48.020;16.720;2023-06-19T01:41:32;14.13;;;9.88;;
41514;SDS011;27247;48.020;16.720;2023-06-19T01:45:44;13.55;;;10.30;;
41514;SDS011;27247;48.020;16.720;2023-06-19T01:49:54;12.63;;;9.50;;
41514;SDS011;27247;48.020;16.720;2023-06-19T01:54:04;15.13;;;9.13;;
41514;SDS011;27247;48.020;16.720;2023-06-19T01:58:15;18.77;;;10.20;;
41514;SDS011;27247;48.020;16.720;2023-06-19T02:02:25;19.20;;;8.60;;
41514;SDS011;27247;48.020;16.720;2023-06-19T02:06:36;15.55;;;9.07;;
41514;SDS011;27247;48.020;16.720;2023-06-19T02:10:46;12.55;;;8.18;;
41514;SDS011;27247;48.020;16.720;2023-06-19T02:14:56;17.23;;;9.50;;
41514;SDS011;27247;48.020;16.720;2023-06-19T02:19:07;14.55;;;9.07;;
41514;SDS011;27247;48.020;16.720;2023-06-19T02:23:17;13.03;;;8.87;;
41514;SDS011;27247;48.020;16.720;2023-06-19T02:27:27;14.43;;;9.97;;
41514;SDS011;27247;48.020;16.720;2023-06-19T02:31:38;13.83;;;9.20;;
41514;SDS011;27247;48.020;16.720;2023-06-19T02:35:48;19.60;;;10.05;;
41514;SDS011;27247;48.020;16.720;2023-06-19T02:39:59;17.67;;;11.60;;
41514;SDS011;27247;48.020;16.720;2023-06-19T02:44:09;15.43;;;10.30;;
41514;SDS011;27247;48.020;16.720;2023-06-19T02:48:19;14.25;;;9.82;;
41514;SDS011;27247;48.020;16.720;2023-06-19T02:52:30;13.38;;;9.90;;
41514;SDS011;27247;48.020;16.720;2023-06-19T02:56:40;15.55;;;9.63;;
41514;SDS011;27247;48.020;16.720;2023-06-19T03:00:50;16.80;;;10.37;;
41514;SDS011;27247;48.020;16.720;2023-06-19T03:05:01;17.57;;;10.30;;
41514;SDS011;27247;48.020;16.720;2023-06-19T03:09:12;15.02;;;10.80;;
41514;SDS011;27247;48.020;16.720;2023-06-19T03:13:22;13.40;;;10.07;;
41514;SDS011;27247;48.020;16.720;2023-06-19T03:17:33;18.27;;;10.60;;
41514;SDS011;27247;48.020;16.720;2023-06-19T03:21:43;18.97;;;10.50;;
41514;SDS011;27247;48.020;16.720;2023-06-19T03:25:53;30.00;;;11.50;;
41514;SDS011;27247;48.020;16.720;2023-06-19T03:30:04;21.67;;;11.17;;
41514;SDS011;27247;48.020;16.720;2023-06-19T03:34:16;19.48;;;10.93;;
41514;SDS011;27247;48.020;16.720;2023-06-19T03:38:26;22.10;;;10.57;;
41514;SDS011;27247;48.020;16.720;2023-06-19T03:42:37;19.08;;;10.55;;
41514;SDS011;27247;48.020;16.720;2023-06-19T03:46:47;20.07;;;10.77;;
41514;SDS011;27247;48.020;16.720;2023-06-19T03:50:58;16.63;;;9.67;;
41514;SDS011;27247;48.020;16.720;2023-06-19T03:55:09;15.68;;;10.27;;
41514;SDS011;27247;48.020;16.720;2023-06-19T03:59:19;18.88;;;10.85;;
41514;SDS011;27247;48.020;16.720;2023-06-19T04:03:30;25.65;;;15.70;;
41514;SDS011;27247;48.020;16.720;2023-06-19T04:07:40;19.20;;;13.80;;
41514;SDS011;27247;48.020;16.720;2023-06-19T04:11:50;17.70;;;13.45;;
41514;SDS011;27247;48.020;16.720;2023-06-19T04:16:01;23.97;;;17.80;;
41514;SDS011;27247;48.020;16.720;2023-06-19T04:20:11;37.83;;;21.55;;
41514;SDS011;27247;48.020;16.720;2023-06-19T04:24:22;20.05;;;12.02;;
41514;SDS011;27247;48.020;16.720;2023-06-19T04:28:32;19.75;;;14.65;;
41514;SDS011;27247;48.020;16.720;2023-06-19T04:32:43;24.17;;;12.23;;
41514;SDS011;27247;48.020;16.720;2023-06-19T04:36:53;21.50;;;12.73;;
41514;SDS011;27247;48.020;16.720;2023-06-19T04:41:03;25.70;;;14.50;;
41514;SDS011;27247;48.020;16.720;2023-06-19T04:45:14;23.10;;;14.00;;
41514;SDS011;27247;48.020;16.720;2023-06-19T04:49:24;20.33;;;15.43;;
41514;SDS011;27247;48.020;16.720;2023-06-19T04:53:34;26.57;;;15.10;;
41514;SDS011;27247;48.020;16.720;2023-06-19T04:57:45;19.50;;;15.50;;
41514;SDS011;27247;48.020;16.720;2023-06-19T05:01:55;20.53;;;15.67;;
41514;SDS011;27247;48.020;16.720;2023-06-19T05:06:06;20.98;;;14.80;;
41514;SDS011;27247;48.020;16.720;2023-06-19T05:10:18;19.98;;;16.38;;
41514;SDS011;27247;48.020;16.720;2023-06-19T05:14:29;20.90;;;16.17;;
41514;SDS011;27247;48.020;16.720;2023-06-19T05:18:39;17.57;;;15.00;;
41514;SDS011;27247;48.020;16.720;2023-06-19T05:22:49;17.33;;;14.57;;
41514;SDS011;27247;48.020;16.720;2023-06-19T05:27:00;17.40;;;13.70;;
41514;SDS011;27247;48.020;16.720;2023-06-19T05:31:10;18.87;;;14.10;;
41514;SDS011;27247;48.020;16.720;2023-06-19T05:35:20;23.37;;;16.03;;
41514;SDS011;27247;48.020;16.720;2023-06-19T05:39:31;23.30;;;16.60;;
41514;SDS011;27247;48.020;16.720;2023-06-19T05:43:42;23.53;;;13.67;;
41514;SDS011;27247;48.020;16.720;2023-06-19T05:47:53;18.65;;;14.20;;
41514;SDS011;27247;48.020;16.720;2023-06-19T05:52:03;19.83;;;14.50;;
41514;SDS011;27247;48.020;16.720;2023-06-19T05:56:14;25.30;;;15.30;;
41514;SDS011;27247;48.020;16.720;2023-06-19T06:00:24;19.97;;;15.30;;
41514;SDS011;27247;48.020;16.720;2023-06-19T06:04:34;17.37;;;13.77;;
41514;SDS011;27247;48.020;16.720;2023-06-19T06:08:46;18.85;;;14.32;;
41514;SDS011;27247;48.020;16.720;2023-06-19T06:12:56;16.60;;;13.13;;
41514;SDS011;27247;48.020;16.720;2023-06-19T06:17:06;17.00;;;12.73;;
41514;SDS011;27247;48.020;16.720;2023-06-19T06:21:17;16.27;;;13.45;;
41514;SDS011;27247;48.020;16.720;2023-06-19T06:25:27;18.37;;;13.50;;
41514;SDS011;27247;48.020;16.720;2023-06-19T06:29:38;14.05;;;12.25;;
41514;SDS011;27247;48.020;16.720;2023-06-19T06:33:48;17.23;;;12.13;;
41514;SDS011;27247;48.020;16.720;2023-06-19T06:37:59;13.35;;;11.07;;
41514;SDS011;27247;48.020;16.720;2023-06-19T06:42:09;12.40;;;10.00;;
41514;SDS011;27247;48.020;16.720;2023-06-19T06:46:19;14.37;;;9.80;;
41514;SDS011;27247;48.020;16.720;2023-06-19T06:50:30;11.90;;;9.03;;
41514;SDS011;27247;48.020;16.720;2023-06-19T06:54:42;12.82;;;8.77;;
41514;SDS011;27247;48.020;16.720;2023-06-19T06:58:52;16.70;;;9.87;;
41514;SDS011;27247;48.020;16.720;2023-06-19T07:03:02;14.37;;;9.60;;
41514;SDS011;27247;48.020;16.720;2023-06-19T07:07:13;10.73;;;8.52;;
41514;SDS011;27247;48.020;16.720;2023-06-19T07:11:23;15.15;;;9.63;;
41514;SDS011;27247;48.020;16.720;2023-06-19T07:15:34;14.30;;;8.13;;
41514;SDS011;27247;48.020;16.720;2023-06-19T07:19:44;11.27;;;8.38;;
41514;SDS011;27247;48.020;16.720;2023-06-19T07:23:54;9.60;;;8.13;;
41514;SDS011;27247;48.020;16.720;2023-06-19T07:28:05;13.65;;;8.98;;
41514;SDS011;27247;48.020;16.720;2023-06-19T07:32:15;12.00;;;8.43;;
41514;SDS011;27247;48.020;16.720;2023-06-19T07:36:25;12.07;;;9.97;;
41514;SDS011;27247;48.020;16.720;2023-06-19T07:40:36;14.00;;;8.68;;
41514;SDS011;27247;48.020;16.720;2023-06-19T07:44:46;10.23;;;7.63;;
41514;SDS011;27247;48.020;16.720;2023-06-19T07:48:56;15.80;;;9.80;;
41514;SDS011;27247;48.020;16.720;2023-06-19T07:53:07;12.53;;;9.13;;
41514;SDS011;27247;48.020;16.720;2023-06-19T07:57:17;10.23;;;9.13;;
41514;SDS011;27247;48.020;16.720;2023-06-19T08:01:28;14.55;;;9.15;;
41514;SDS011;27247;48.020;16.720;2023-06-19T08:05:38;12.27;;;9.57;;
41514;SDS011;27247;48.020;16.720;2023-06-19T08:09:48;13.43;;;8.60;;
41514;SDS011;27247;48.020;16.720;2023-06-19T08:13:59;12.18;;;7.65;;
41514;SDS011;27247;48.020;16.720;2023-06-19T08:18:09;15.77;;;8.93;;
41514;SDS011;27247;48.020;16.720;2023-06-19T08:22:20;13.18;;;8.30;;
41514;SDS011;27247;48.020;16.720;2023-06-19T08:26:31;12.18;;;8.43;;
41514;SDS011;27247;48.020;16.720;2023-06-19T08:30:42;13.52;;;8.52;;
41514;SDS011;27247;48.020;16.720;2023-06-19T08:34:54;11.60;;;8.48;;
41514;SDS011;27247;48.020;16.720;2023-06-19T08:39:04;12.17;;;8.90;;
41514;SDS011;27247;48.020;16.720;2023-06-19T08:43:14;12.82;;;9.25;;
41514;SDS011;27247;48.020;16.720;2023-06-19T08:47:28;12.20;;;8.50;;
41514;SDS011;27247;48.020;16.720;2023-06-19T08:51:40;12.80;;;8.65;;
41514;SDS011;27247;48.020;16.720;2023-06-19T08:55:51;15.15;;;8.57;;
41514;SDS011;27247;48.020;16.720;2023-06-19T09:00:01;11.23;;;8.83;;
41514;SDS011;27247;48.020;16.720;2023-06-19T09:04:15;13.32;;;8.70;;
41514;SDS011;27247;48.020;16.720;2023-06-19T09:08:25;11.00;;;8.10;;
41514;SDS011;27247;48.020;16.720;2023-06-19T09:12:36;13.18;;;8.00;;
41514;SDS011;27247;48.020;16.720;2023-06-19T09:16:46;9.33;;;7.50;;
41514;SDS011;27247;48.020;16.720;2023-06-19T09:20:57;10.77;;;8.03;;
41514;SDS011;27247;48.020;16.720;2023-06-19T09:25:07;10.88;;;7.63;;
41514;SDS011;27247;48.020;16.720;2023-06-19T09:29:20;15.30;;;9.60;;
41514;SDS011;27247;48.020;16.720;2023-06-19T09:33:31;9.68;;;8.65;;
41514;SDS011;27247;48.020;16.720;2023-06-19T09:37:42;13.48;;;8.57;;
41514;SDS011;27247;48.020;16.720;2023-06-19T09:41:55;11.15;;;8.32;;
41514;SDS011;27247;48.020;16.720;2023-06-19T09:46:10;10.52;;;7.82;;
41514;SDS011;27247;48.020;16.720;2023-06-19T09:50:21;11.73;;;8.00;;
41514;SDS011;27247;48.020;16.720;2023-06-19T09:54:32;10.98;;;7.88;;
41514;SDS011;27247;48.020;16.720;2023-06-19T09:58:44;13.65;;;8.10;;
41514;SDS011;27247;48.020;16.720;2023-06-19T10:02:56;12.23;;;9.10;;
41514;SDS011;27247;48.020;16.720;2023-06-19T10:07:14;9.43;;;8.43;;
41514;SDS011;27247;48.020;16.720;2023-06-19T10:11:43;10.93;;;8.35;;
41514;SDS011;27247;48.020;16.720;2023-06-19T10:15:54;9.68;;;8.38;;
41514;SDS011;27247;48.020;16.720;2023-06-19T10:20:05;8.93;;;8.03;;
41514;SDS011;27247;48.020;16.720;2023-06-19T10:24:25;8.38;;;7.45;;
41514;SDS011;27247;48.020;16.720;2023-06-19T10:28:36;12.45;;;8.05;;
41514;SDS011;27247;48.020;16.720;2023-06-19T10:32:47;9.35;;;8.38;;
41514;SDS011;27247;48.020;16.720;2023-06-19T10:36:58;14.90;;;8.02;;
41514;SDS011;27247;48.020;16.720;2023-06-19T10:41:14;11.67;;;8.33;;
41514;SDS011;27247;48.020;16.720;2023-06-19T10:45:25;9.93;;;8.52;;
41514;SDS011;27247;48.020;16.720;2023-06-19T10:49:38;9.13;;;8.20;;
41514;SDS011;27247;48.020;16.720;2023-06-19T10:53:48;9.85;;;8.07;;
41514;SDS011;27247;48.020;16.720;2023-06-19T10:57:59;12.80;;;8.35;;
41514;SDS011;27247;48.020;16.720;2023-06-19T11:02:09;9.13;;;7.77;;
41514;SDS011;27247;48.020;16.720;2023-06-19T11:06:20;10.50;;;8.07;;
41514;SDS011;27247;48.020;16.720;2023-06-19T11:10:31;10.75;;;8.30;;
41514;SDS011;27247;48.020;16.720;2023-06-19T11:14:41;9.30;;;7.10;;
41514;SDS011;27247;48.020;16.720;2023-06-19T11:18:55;10.88;;;7.78;;
41514;SDS011;27247;48.020;16.720;2023-06-19T11:23:08;9.25;;;7.95;;
41514;SDS011;27247;48.020;16.720;2023-06-19T11:27:22;8.30;;;7.07;;
41514;SDS011;27247;48.020;16.720;2023-06-19T11:31:38;9.55;;;7.07;;
41514;SDS011;27247;48.020;16.720;2023-06-19T11:35:49;10.33;;;7.33;;
41514;SDS011;27247;48.020;16.720;2023-06-19T11:40:01;10.13;;;6.22;;
41514;SDS011;27247;48.020;16.720;2023-06-19T11:44:14;10.60;;;7.53;;
41514;SDS011;27247;48.020;16.720;2023-06-19T11:48:25;10.17;;;7.37;;
41514;SDS011;27247;48.020;16.720;2023-06-19T11:52:35;7.95;;;6.45;;
41514;SDS011;27247;48.020;16.720;2023-06-19T11:56:46;10.77;;;6.97;;
41514;SDS011;27247;48.020;16.720;2023-06-19T12:00:59;11.10;;;7.10;;
41514;SDS011;27247;48.020;16.720;2023-06-19T12:05:10;8.47;;;7.13;;
41514;SDS011;27247;48.020;16.720;2023-06-19T12:09:20;9.70;;;6.50;;
41514;SDS011;27247;48.020;16.720;2023-06-19T12:13:31;10.30;;;6.97;;
41514;SDS011;27247;48.020;16.720;2023-06-19T12:17:41;10.33;;;7.67;;
41514;SDS011;27247;48.020;16.720;2023-06-19T12:21:51;11.17;;;7.00;;
41514;SDS011;27247;48.020;16.720;2023-06-19T12:26:02;10.32;;;6.70;;
41514;SDS011;27247;48.020;16.720;2023-06-19T12:30:12;8.98;;;7.88;;
41514;SDS011;27247;48.020;16.720;2023-06-19T12:34:23;9.87;;;7.60;;
41514;SDS011;27247;48.020;16.720;2023-06-19T12:38:34;8.38;;;6.72;;
41514;SDS011;27247;48.020;16.720;2023-06-19T12:42:47;7.63;;;6.20;;
41514;SDS011;27247;48.020;16.720;2023-06-19T12:47:00;9.15;;;6.90;;
41514;SDS011;27247;48.020;16.720;2023-06-19T12:51:10;9.00;;;7.10;;
41514;SDS011;27247;48.020;16.720;2023-06-19T12:55:21;7.80;;;6.17;;
41514;SDS011;27247;48.020;16.720;2023-06-19T12:59:31;12.60;;;6.87;;
41514;SDS011;27247;48.020;16.720;2023-06-19T13:03:42;9.27;;;7.57;;
41514;SDS011;27247;48.020;16.720;2023-06-19T13:07:53;7.83;;;6.13;;
41514;SDS011;27247;48.020;16.720;2023-06-19T13:12:03;9.40;;;6.70;;
41514;SDS011;27247;48.020;16.720;2023-06-19T13:16:14;9.65;;;7.45;;
41514;SDS011;27247;48.020;16.720;2023-06-19T13:20:26;9.70;;;6.90;;
41514;SDS011;27247;48.020;16.720;2023-06-19T13:24:36;8.10;;;7.27;;
41514;SDS011;27247;48.020;16.720;2023-06-19T13:28:46;8.80;;;7.07;;
41514;SDS011;27247;48.020;16.720;2023-06-19T13:32:56;11.90;;;7.00;;
41514;SDS011;27247;48.020;16.720;2023-06-19T13:37:07;8.23;;;7.30;;
41514;SDS011;27247;48.020;16.720;2023-06-19T13:41:17;8.97;;;7.10;;
41514;SDS011;27247;48.020;16.720;2023-06-19T13:45:28;7.80;;;7.00;;
41514;SDS011;27247;48.020;16.720;2023-06-19T13:49:38;8.17;;;6.87;;
41514;SDS011;27247;48.020;16.720;2023-06-19T13:53:50;10.95;;;7.10;;
41514;SDS011;27247;48.020;16.720;2023-06-19T13:58:01;9.57;;;7.15;;
41514;SDS011;27247;48.020;16.720;2023-06-19T14:02:11;10.53;;;8.07;;
41514;SDS011;27247;48.020;16.720;2023-06-19T14:06:21;9.37;;;7.00;;
41514;SDS011;27247;48.020;16.720;2023-06-19T14:10:32;9.60;;;6.70;;
41514;SDS011;27247;48.020;16.720;2023-06-19T14:14:42;7.37;;;6.67;;
41514;SDS011;27247;48.020;16.720;2023-06-19T14:18:52;8.37;;;7.27;;
41514;SDS011;27247;48.020;16.720;2023-06-19T14:23:03;8.30;;;7.50;;
41514;SDS011;27247;48.020;16.720;2023-06-19T14:27:13;8.00;;;7.07;;
41514;SDS011;27247;48.020;16.720;2023-06-19T14:31:24;8.13;;;6.85;;
41514;SDS011;27247;48.020;16.720;2023-06-19T14:35:34;7.73;;;6.83;;
41514;SDS011;27247;48.020;16.720;2023-06-19T14:39:45;8.00;;;7.20;;
41514;SDS011;27247;48.020;16.720;2023-06-19T14:43:55;8.68;;;6.65;;
41514;SDS011;27247;48.020;16.720;2023-06-19T14:48:05;9.25;;;7.13;;
41514;SDS011;27247;48.020;16.720;2023-06-19T14:52:16;7.97;;;7.07;;
41514;SDS011;27247;48.020;16.720;2023-06-19T14:56:28;10.23;;;7.15;;
41514;SDS011;27247;48.020;16.720;2023-06-19T15:00:39;9.97;;;6.77;;
41514;SDS011;27247;48.020;16.720;2023-06-19T15:04:49;10.02;;;7.38;;
41514;SDS011;27247;48.020;16.720;2023-06-19T15:09:00;7.73;;;6.63;;
41514;SDS011;27247;48.020;16.720;2023-06-19T15:13:10;7.13;;;6.43;;
41514;SDS011;27247;48.020;16.720;2023-06-19T15:17:20;7.40;;;6.60;;
41514;SDS011;27247;48.020;16.720;2023-06-19T15:21:31;15.43;;;7.20;;
41514;SDS011;27247;48.020;16.720;2023-06-19T15:25:41;9.07;;;7.28;;
41514;SDS011;27247;48.020;16.720;2023-06-19T15:29:51;10.33;;;6.57;;
41514;SDS011;27247;48.020;16.720;2023-06-19T15:34:02;8.77;;;6.77;;
41514;SDS011;27247;48.020;16.720;2023-06-19T15:38:12;7.55;;;6.80;;
41514;SDS011;27247;48.020;16.720;2023-06-19T15:42:23;11.32;;;7.30;;
41514;SDS011;27247;48.020;16.720;2023-06-19T15:46:33;9.38;;;7.10;;
41514;SDS011;27247;48.020;16.720;2023-06-19T15:50:44;8.20;;;7.17;;
41514;SDS011;27247;48.020;16.720;2023-06-19T15:54:54;7.13;;;6.20;;
41514;SDS011;27247;48.020;16.720;2023-06-19T15:59:05;9.27;;;6.78;;
41514;SDS011;27247;48.020;16.720;2023-06-19T16:03:15;7.03;;;5.85;;
41514;SDS011;27247;48.020;16.720;2023-06-19T16:07:25;7.15;;;6.13;;
41514;SDS011;27247;48.020;16.720;2023-06-19T16:11:36;9.20;;;7.07;;
41514;SDS011;27247;48.020;16.720;2023-06-19T16:15:46;7.73;;;6.40;;
41514;SDS011;27247;48.020;16.720;2023-06-19T16:19:56;13.17;;;7.03;;
41514;SDS011;27247;48.020;16.720;2023-06-19T16:24:08;7.78;;;6.53;;
41514;SDS011;27247;48.020;16.720;2023-06-19T16:28:19;9.07;;;6.82;;
41514;SDS011;27247;48.020;16.720;2023-06-19T16:32:29;8.23;;;6.87;;
41514;SDS011;27247;48.020;16.720;2023-06-19T16:36:40;8.83;;;6.93;;
41514;SDS011;27247;48.020;16.720;2023-06-19T16:40:50;8.55;;;6.78;;
41514;SDS011;27247;48.020;16.720;2023-06-19T16:45:00;6.90;;;6.00;;
41514;SDS011;27247;48.020;16.720;2023-06-19T16:49:11;9.07;;;6.53;;
41514;SDS011;27247;48.020;16.720;2023-06-19T16:53:21;8.20;;;6.40;;
41514;SDS011;27247;48.020;16.720;2023-06-19T16:57:31;25.53;;;7.57;;
41514;SDS011;27247;48.020;16.720;2023-06-19T17:01:42;16.80;;;7.47;;
41514;SDS011;27247;48.020;16.720;2023-06-19T17:05:55;12.35;;;7.07;;
41514;SDS011;27247;48.020;16.720;2023-06-19T17:10:05;12.73;;;6.77;;
41514;SDS011;27247;48.020;16.720;2023-06-19T17:14:16;12.20;;;7.10;;
41514;SDS011;27247;48.020;16.720;2023-06-19T17:18:26;12.80;;;7.17;;
41514;SDS011;27247;48.020;16.720;2023-06-19T17:22:37;10.75;;;6.65;;
41514;SDS011;27247;48.020;16.720;2023-06-19T17:26:47;8.17;;;6.63;;
41514;SDS011;27247;48.020;16.720;2023-06-19T17:30:57;8.17;;;6.10;;
41514;SDS011;27247;48.020;16.720;2023-06-19T17:35:08;10.37;;;7.10;;
41514;SDS011;27247;48.020;16.720;2023-06-19T17:39:19;7.97;;;6.82;;
41514;SDS011;27247;48.020;16.720;2023-06-19T17:43:29;9.67;;;7.57;;
41514;SDS011;27247;48.020;16.720;2023-06-19T17:47:39;61.77;;;9.83;;
41514;SDS011;27247;48.020;16.720;2023-06-19T17:51:50;15.07;;;6.97;;
41514;SDS011;27247;48.020;16.720;2023-06-19T17:56:00;11.80;;;7.27;;
41514;SDS011;27247;48.020;16.720;2023-06-19T18:00:14;11.40;;;6.88;;
41514;SDS011;27247;48.020;16.720;2023-06-19T18:04:25;8.60;;;7.22;;
41514;SDS011;27247;48.020;16.720;2023-06-19T18:08:35;13.90;;;6.80;;
41514;SDS011;27247;48.020;16.720;2023-06-19T18:12:46;8.40;;;6.70;;
41514;SDS011;27247;48.020;16.720;2023-06-19T18:16:56;9.77;;;7.67;;
41514;SDS011;27247;48.020;16.720;2023-06-19T18:21:10;9.70;;;7.35;;
41514;SDS011;27247;48.020;16.720;2023-06-19T18:25:20;9.33;;;7.53;;
41514;SDS011;27247;48.020;16.720;2023-06-19T18:29:31;14.70;;;7.13;;
41514;SDS011;27247;48.020;16.720;2023-06-19T18:33:41;7.75;;;6.60;;
41514;SDS011;27247;48.020;16.720;2023-06-19T18:37:52;8.60;;;7.70;;
41514;SDS011;27247;48.020;16.720;2023-06-19T18:42:03;10.97;;;7.20;;
41514;SDS011;27247;48.020;16.720;2023-06-19T18:46:13;10.48;;;7.07;;
41514;SDS011;27247;48.020;16.720;2023-06-19T18:50:24;11.18;;;8.23;;
41514;SDS011;27247;48.020;16.720;2023-06-19T18:54:35;11.45;;;7.63;;
41514;SDS011;27247;48.020;16.720;2023-06-19T18:58:45;9.00;;;7.17;;
41514;SDS011;27247;48.020;16.720;2023-06-19T19:02:56;8.32;;;7.38;;
41514;SDS011;27247;48.020;16.720;2023-06-19T19:07:06;15.23;;;7.90;;
41514;SDS011;27247;48.020;16.720;2023-06-19T19:11:16;12.00;;;7.63;;
41514;SDS011;27247;48.020;16.720;2023-06-19T19:15:27;10.57;;;7.07;;
41514;SDS011;27247;48.020;16.720;2023-06-19T19:19:37;9.30;;;7.28;;
41514;SDS011;27247;48.020;16.720;2023-06-19T19:23:47;11.80;;;8.03;;
41514;SDS011;27247;48.020;16.720;2023-06-19T19:27:58;11.40;;;7.83;;
41514;SDS011;27247;48.020;16.720;2023-06-19T19:32:08;10.10;;;7.73;;
41514;SDS011;27247;48.020;16.720;2023-06-19T19:36:18;9.77;;;7.17;;
41514;SDS011;27247;48.020;16.720;2023-06-19T19:40:29;11.17;;;8.20;;
41514;SDS011;27247;48.020;16.720;2023-06-19T19:44:39;9.05;;;8.10;;
41514;SDS011;27247;48.020;16.720;2023-06-19T19:48:49;9.50;;;7.97;;
41514;SDS011;27247;48.020;16.720;2023-06-19T19:53:00;12.60;;;7.90;;
41514;SDS011;27247;48.020;16.720;2023-06-19T19:57:10;13.32;;;8.55;;
41514;SDS011;27247;48.020;16.720;2023-06-19T20:01:21;13.02;;;8.50;;
41514;SDS011;27247;48.020;16.720;2023-06-19T20:05:31;13.70;;;8.68;;
41514;SDS011;27247;48.020;16.720;2023-06-19T20:09:41;10.73;;;9.13;;
41514;SDS011;27247;48.020;16.720;2023-06-19T20:13:52;14.10;;;8.68;;
41514;SDS011;27247;48.020;16.720;2023-06-19T20:18:03;12.00;;;8.27;;
41514;SDS011;27247;48.020;16.720;2023-06-19T20:22:13;15.47;;;10.23;;
41514;SDS011;27247;48.020;16.720;2023-06-19T20:26:23;13.97;;;11.43;;
41514;SDS011;27247;48.020;16.720;2023-06-19T20:30:34;11.18;;;9.18;;
41514;SDS011;27247;48.020;16.720;2023-06-19T20:34:44;12.80;;;9.10;;
41514;SDS011;27247;48.020;16.720;2023-06-19T20:38:55;14.88;;;9.30;;
41514;SDS011;27247;48.020;16.720;2023-06-19T20:43:06;11.13;;;8.05;;
41514;SDS011;27247;48.020;16.720;2023-06-19T20:47:17;13.13;;;9.10;;
41514;SDS011;27247;48.020;16.720;2023-06-19T20:51:28;11.25;;;8.27;;
41514;SDS011;27247;48.020;16.720;2023-06-19T20:55:38;10.98;;;8.30;;
41514;SDS011;27247;48.020;16.720;2023-06-19T20:59:49;10.60;;;8.57;;
41514;SDS011;27247;48.020;16.720;2023-06-19T21:03:59;11.70;;;8.53;;
41514;SDS011;27247;48.020;16.720;2023-06-19T21:08:11;13.18;;;8.63;;
41514;SDS011;27247;48.020;16.720;2023-06-19T21:12:21;11.57;;;8.63;;
41514;SDS011;27247;48.020;16.720;2023-06-19T21:16:32;8.82;;;7.93;;
41514;SDS011;27247;48.020;16.720;2023-06-19T21:20:42;13.67;;;8.77;;
41514;SDS011;27247;48.020;16.720;2023-06-19T21:24:52;10.67;;;8.87;;
41514;SDS011;27247;48.020;16.720;2023-06-19T21:29:03;11.50;;;8.70;;
41514;SDS011;27247;48.020;16.720;2023-06-19T21:33:13;13.27;;;9.00;;
41514;SDS011;27247;48.020;16.720;2023-06-19T21:37:23;10.40;;;8.25;;
41514;SDS011;27247;48.020;16.720;2023-06-19T21:41:35;14.23;;;9.80;;
41514;SDS011;27247;48.020;16.720;2023-06-19T21:45:46;11.15;;;8.45;;
41514;SDS011;27247;48.020;16.720;2023-06-19T21:49:56;10.27;;;8.23;;
41514;SDS011;27247;48.020;16.720;2023-06-19T21:54:06;15.17;;;9.40;;
41514;SDS011;27247;48.020;16.720;2023-06-19T21:58:17;19.73;;;9.30;;
41514;SDS011;27247;48.020;16.720;2023-06-19T22:02:27;16.63;;;10.93;;
41514;SDS011;27247;48.020;16.720;2023-06-19T22:06:37;12.10;;;9.80;;
41514;SDS011;27247;48.020;16.720;2023-06-19T22:10:48;15.00;;;10.87;;
41514;SDS011;27247;48.020;16.720;2023-06-19T22:14:58;15.57;;;9.80;;
41514;SDS011;27247;48.020;16.720;2023-06-19T22:19:08;14.23;;;9.85;;
41514;SDS011;27247;48.020;16.720;2023-06-19T22:23:20;12.95;;;9.25;;
41514;SDS011;27247;48.020;16.720;2023-06-19T22:27:30;13.90;;;9.07;;
41514;SDS011;27247;48.020;16.720;2023-06-19T22:31:40;14.80;;;9.77;;
41514;SDS011;27247;48.020;16.720;2023-06-19T22:35:51;12.13;;;10.03;;
41514;SDS011;27247;48.020;16.720;2023-06-19T22:40:01;13.98;;;10.75;;
41514;SDS011;27247;48.020;16.720;2023-06-19T22:44:14;16.23;;;11.65;;
41514;SDS011;27247;48.020;16.720;2023-06-19T22:48:24;15.53;;;11.33;;
41514;SDS011;27247;48.020;16.720;2023-06-19T22:52:36;13.85;;;9.90;;
41514;SDS011;27247;48.020;16.720;2023-06-19T22:56:47;16.13;;;11.65;;
41514;SDS011;27247;48.020;16.720;2023-06-19T23:00:57;16.55;;;11.13;;
41514;SDS011;27247;48.020;16.720;2023-06-19T23:05:08;13.50;;;10.43;;
41514;SDS011;27247;48.020;16.720;2023-06-19T23:09:20;15.75;;;10.80;;
41514;SDS011;27247;48.020;16.720;2023-06-19T23:13:30;15.52;;;10.98;;
41514;SDS011;27247;48.020;16.720;2023-06-19T23:17:41;16.58;;;12.70;;
41514;SDS011;27247;48.020;16.720;2023-06-19T23:21:51;14.70;;;12.47;;
41514;SDS011;27247;48.020;16.720;2023-06-19T23:26:01;17.58;;;11.25;;
41514;SDS011;27247;48.020;16.720;2023-06-19T23:30:12;12.88;;;10.85;;
41514;SDS011;27247;48.020;16.720;2023-06-19T23:34:22;13.18;;;10.85;;
41514;SDS011;27247;48.020;16.720;2023-06-19T23:38:32;19.83;;;11.23;;
41514;SDS011;27247;48.020;16.720;2023-06-19T23:42:44;14.82;;;12.23;;
41514;SDS011;27247;48.020;16.720;2023-06-19T23:46:55;22.75;;;13.10;;
41514;SDS011;27247;48.020;16.720;2023-06-19T23:51:05;16.60;;;12.43;;
41514;SDS011;27247;48.020;16.720;2023-06-19T23:55:15;17.77;;;11.57;;
41514;SDS011;27247;48.020;16.720;2023-06-19T23:59:26;19.63;;;14.33;;
